Time;durP1;ratioP1;P1;durP2;ratioP2;P2;SDS_P1;SDS_P2;PMS_P1;PMS_P2;Temp;Humidity;BMP_temperature;BMP_pressure;BME280_temperature;BME280_humidity;BME280_pressure;Samples;Min_cycle;Max_cycle;Signal;HPM_P1;HPM_P2
2024/03/30 00:00:14;;;;;;;1.50;0.50;;;15.80;57.30;17.30;99546.00;;;;5011058;28;20249;-76
2024/03/30 00:02:40;;;;;;;0.90;0.40;;;15.70;57.20;17.20;99532.00;;;;5012121;28;20208;-77
2024/03/30 00:05:08;;;;;;;1.80;0.30;;;15.70;57.20;17.20;99533.00;;;;5012645;28;20200;-77
2024/03/30 00:07:40;;;;;;;0.77;0.38;;;15.60;57.10;17.20;99532.00;;;;5011426;28;20755;-76
2024/03/30 00:10:09;;;;;;;0.47;0.38;;;15.60;57.10;17.10;99530.00;;;;5011619;28;20189;-77
2024/03/30 00:12:35;;;;;;;0.40;0.30;;;15.50;57.20;17.10;99538.00;;;;5011604;28;20216;-77
2024/03/30 00:15:04;;;;;;;0.65;0.40;;;15.50;57.20;17.10;99549.00;;;;5011558;28;20263;-77
2024/03/30 00:17:31;;;;;;;0.93;0.30;;;15.40;57.20;17.00;99546.00;;;;5012083;28;20205;-76
2024/03/30 00:19:58;;;;;;;3.35;0.50;;;15.40;57.20;17.00;99544.00;;;;5012251;28;20627;-76
2024/03/30 00:22:24;;;;;;;0.70;0.50;;;15.40;57.30;17.00;99540.00;;;;5011640;28;20200;-76
2024/03/30 00:24:51;;;;;;;0.40;0.30;;;15.30;57.40;17.00;99544.00;;;;5011162;28;20223;-77
2024/03/30 00:27:17;;;;;;;1.05;0.30;;;15.30;57.40;17.00;99533.00;;;;5010900;28;20193;-76
2024/03/30 00:29:47;;;;;;;1.10;0.40;;;15.30;57.40;16.90;99543.00;;;;5011588;28;20196;-77
2024/03/30 00:32:14;;;;;;;0.30;0.20;;;15.20;57.50;16.90;99545.00;;;;5011219;28;20192;-77
2024/03/30 00:34:42;;;;;;;0.68;0.40;;;15.20;57.50;16.90;99532.00;;;;5011716;28;20728;-76
2024/03/30 00:37:08;;;;;;;0.40;0.20;;;15.20;57.50;16.90;99533.00;;;;5012007;28;20681;-76
2024/03/30 00:39:35;;;;;;;0.43;0.22;;;15.20;57.60;16.90;99532.00;;;;5012143;28;20271;-76
2024/03/30 00:42:01;;;;;;;0.40;0.30;;;15.20;57.60;16.90;99534.00;;;;5011226;28;20189;-76
2024/03/30 00:44:28;;;;;;;1.23;0.40;;;15.20;57.70;16.80;99531.00;;;;5011136;28;20197;-77
2024/03/30 00:46:55;;;;;;;0.70;0.20;;;15.20;57.60;16.80;99525.00;;;;5010789;28;20710;-76
2024/03/30 00:49:23;;;;;;;0.45;0.20;;;15.10;57.70;16.80;99514.00;;;;5015315;28;20197;-76
2024/03/30 00:51:49;;;;;;;1.00;0.50;;;15.10;57.70;16.80;99512.00;;;;5014491;28;20193;-76
2024/03/30 00:54:16;;;;;;;2.78;0.60;;;15.10;57.70;16.80;99508.00;;;;5017585;28;20274;-77
2024/03/30 00:56:42;;;;;;;0.52;0.38;;;15.10;57.80;16.80;99504.00;;;;5023407;28;20203;-77
2024/03/30 00:59:09;;;;;;;0.52;0.28;;;15.10;57.80;16.80;99498.00;;;;5014384;28;20209;-77
2024/03/30 01:01:35;;;;;;;0.65;0.30;;;15.10;57.80;16.80;99492.00;;;;5015060;28;20195;-77
2024/03/30 01:04:03;;;;;;;0.43;0.25;;;15.10;57.80;16.80;99493.00;;;;5015398;28;20296;-78
2024/03/30 01:06:31;;;;;;;0.57;0.20;;;15.10;57.90;16.70;99491.00;;;;5004043;28;20189;-76
2024/03/30 01:08:58;;;;;;;0.52;0.22;;;15.00;58.00;16.70;99480.00;;;;5014174;28;20197;-76
2024/03/30 01:11:25;;;;;;;0.60;0.28;;;15.00;58.50;16.70;99492.00;;;;5015619;28;20426;-76
2024/03/30 01:13:53;;;;;;;0.40;0.30;;;15.00;58.00;16.70;99489.00;;;;5014810;28;20320;-77
2024/03/30 01:16:20;;;;;;;0.63;0.32;;;15.00;58.10;16.70;99487.00;;;;5014140;28;20197;-77
2024/03/30 01:18:48;;;;;;;1.00;0.32;;;15.00;58.10;16.70;99490.00;;;;5014446;28;20197;-77
2024/03/30 01:21:15;;;;;;;0.60;0.20;;;15.00;58.10;16.70;99493.00;;;;5014770;28;20211;-77
2024/03/30 01:23:44;;;;;;;0.80;0.40;;;15.00;58.20;16.70;99482.00;;;;5012977;28;20220;-77
2024/03/30 01:26:13;;;;;;;0.45;0.30;;;14.90;58.20;16.60;99486.00;;;;5014333;28;20544;-77
2024/03/30 01:28:43;;;;;;;0.57;0.40;;;14.90;58.20;16.60;99475.00;;;;5014381;28;20225;-77
2024/03/30 01:31:11;;;;;;;0.57;0.32;;;14.90;58.30;16.60;99479.00;;;;5014790;28;20280;-77
2024/03/30 01:33:40;;;;;;;0.38;0.25;;;14.90;58.30;16.60;99472.00;;;;5014105;28;20227;-77
2024/03/30 01:36:07;;;;;;;0.63;0.30;;;14.90;58.30;16.60;99473.00;;;;5014142;28;20662;-76
2024/03/30 01:38:35;;;;;;;0.80;0.50;;;14.90;58.30;16.60;99465.00;;;;5013810;28;20194;-76
2024/03/30 01:41:02;;;;;;;1.25;0.60;;;14.80;58.30;16.50;99464.00;;;;5014822;28;20193;-77
2024/03/30 01:43:29;;;;;;;1.98;0.65;;;14.80;58.30;16.50;99467.00;;;;5014196;28;20567;-77
2024/03/30 01:45:57;;;;;;;0.38;0.30;;;14.80;58.40;16.50;99466.00;;;;5015135;28;20670;-77
2024/03/30 01:48:25;;;;;;;0.93;0.57;;;14.80;58.40;16.50;99469.00;;;;5013896;28;20575;-76
2024/03/30 01:50:53;;;;;;;1.15;0.60;;;14.80;58.50;16.50;99472.00;;;;5014142;28;20229;-77
2024/03/30 01:53:25;;;;;;;0.75;0.55;;;14.70;58.50;16.40;99466.00;;;;5012788;28;20271;-77
2024/03/30 01:55:53;;;;;;;0.70;0.60;;;14.70;58.50;16.50;99456.00;;;;5003053;28;20255;-76
2024/03/30 01:58:25;;;;;;;1.00;0.50;;;14.70;58.60;16.40;99468.00;;;;5013105;28;20754;-76
2024/03/30 02:00:54;;;;;;;0.82;0.40;;;14.70;58.70;16.40;99465.00;;;;5013807;28;20225;-77
2024/03/30 02:03:24;;;;;;;0.93;0.73;;;14.70;58.70;16.40;99469.00;;;;5024620;28;20648;-77
2024/03/30 02:05:54;;;;;;;0.93;0.60;;;14.70;58.70;16.40;99468.00;;;;5033899;28;20214;-77
2024/03/30 02:08:23;;;;;;;0.63;0.47;;;14.70;58.80;16.40;99460.00;;;;5015264;28;20193;-76
2024/03/30 02:10:50;;;;;;;0.75;0.40;;;14.70;58.80;16.40;99461.00;;;;5014199;28;20831;-77
2024/03/30 02:13:17;;;;;;;0.63;0.50;;;14.70;58.80;16.40;99465.00;;;;5013129;28;20212;-76
2024/03/30 02:15:45;;;;;;;0.80;0.45;;;14.70;58.80;16.40;99466.00;;;;5010057;28;20568;-76
2024/03/30 02:18:12;;;;;;;0.82;0.50;;;14.70;58.90;16.40;99460.00;;;;5013180;28;20189;-77
2024/03/30 02:20:38;;;;;;;0.60;0.45;;;14.60;58.90;16.40;99464.00;;;;5014011;28;20201;-77
2024/03/30 02:23:05;;;;;;;1.48;1.00;;;14.60;59.00;16.40;99461.00;;;;5013156;28;20243;-77
2024/03/30 02:25:33;;;;;;;0.73;0.50;;;14.70;59.00;16.40;99471.00;;;;5013425;28;20271;-77
2024/03/30 02:28:00;;;;;;;1.90;0.80;;;14.60;59.10;16.40;99482.00;;;;5013288;28;20292;-77
2024/03/30 02:30:29;;;;;;;0.88;0.60;;;14.60;59.70;16.40;99475.00;;;;5013473;28;20658;-77
2024/03/30 02:32:58;;;;;;;1.52;0.70;;;14.70;59.20;16.40;99478.00;;;;5013389;28;20220;-77
2024/03/30 02:35:25;;;;;;;0.40;0.40;;;14.60;59.20;16.40;99481.00;;;;5011089;28;20193;-77
2024/03/30 02:37:53;;;;;;;1.95;0.50;;;14.60;59.20;16.40;99475.00;;;;5014090;28;20278;-76
2024/03/30 02:40:20;;;;;;;0.93;0.60;;;14.60;59.30;16.40;99480.00;;;;5012634;28;20216;-77
2024/03/30 02:42:48;;;;;;;0.80;0.63;;;14.60;59.30;16.40;99478.00;;;;5012605;28;20205;-77
2024/03/30 02:45:15;;;;;;;0.70;0.65;;;14.60;59.40;16.40;99477.00;;;;5013018;28;20193;-77
2024/03/30 02:47:42;;;;;;;0.80;0.60;;;14.60;59.40;16.40;99478.00;;;;5013006;28;20254;-76
2024/03/30 02:50:09;;;;;;;0.77;0.52;;;14.60;59.50;16.40;99468.00;;;;5012797;28;20203;-76
2024/03/30 02:52:36;;;;;;;1.10;0.60;;;14.60;59.60;16.40;99471.00;;;;5012549;28;20686;-75
2024/03/30 02:55:02;;;;;;;1.13;0.60;;;14.60;59.70;16.40;99477.00;;;;5014633;28;20199;-75
2024/03/30 02:57:29;;;;;;;1.73;0.82;;;14.60;59.70;16.40;99479.00;;;;5012459;28;20264;-75
2024/03/30 02:59:56;;;;;;;3.15;0.95;;;14.60;59.80;16.40;99478.00;;;;5012349;28;20316;-76
2024/03/30 03:02:23;;;;;;;0.77;0.70;;;14.60;59.80;16.40;99472.00;;;;5013118;28;20826;-76
2024/03/30 03:04:50;;;;;;;1.83;0.88;;;14.60;59.90;16.40;99468.00;;;;5012640;28;20201;-76
2024/03/30 03:07:17;;;;;;;2.13;0.80;;;14.60;60.00;16.40;99467.00;;;;5010996;28;20193;-75
2024/03/30 03:09:43;;;;;;;0.63;0.57;;;14.60;60.10;16.40;99469.00;;;;5012267;28;20203;-75
2024/03/30 03:12:10;;;;;;;0.90;0.73;;;14.60;60.20;16.40;99462.00;;;;5013961;28;20216;-76
2024/03/30 03:14:36;;;;;;;1.70;0.75;;;14.60;60.20;16.40;99466.00;;;;5012005;28;20947;-76
2024/03/30 03:17:06;;;;;;;1.50;0.90;;;14.60;60.30;16.30;99457.00;;;;5012907;28;20193;-77
2024/03/30 03:19:32;;;;;;;1.27;1.08;;;14.60;60.40;16.40;99454.00;;;;5012374;28;20189;-77
2024/03/30 03:21:59;;;;;;;0.60;0.45;;;14.60;60.40;16.30;99455.00;;;;5012481;28;20197;-76
2024/03/30 03:24:25;;;;;;;1.67;0.60;;;14.60;60.50;16.40;99457.00;;;;5009890;28;20217;-76
2024/03/30 03:26:52;;;;;;;1.58;0.60;;;14.60;60.60;16.30;99459.00;;;;4993351;28;20229;-76
2024/03/30 03:29:18;;;;;;;0.80;0.63;;;14.60;60.70;16.30;99458.00;;;;5012051;28;20658;-76
2024/03/30 03:31:45;;;;;;;0.93;0.70;;;14.60;60.80;16.30;99462.00;;;;5012339;28;20697;-76
2024/03/30 03:34:13;;;;;;;1.15;0.60;;;14.60;60.80;16.30;99457.00;;;;5012521;28;20224;-76
2024/03/30 03:36:41;;;;;;;1.88;0.77;;;14.60;60.80;16.30;99454.00;;;;5012260;28;20201;-77
2024/03/30 03:39:07;;;;;;;1.25;0.77;;;14.50;60.80;16.30;99456.00;;;;5012874;28;20680;-76
2024/03/30 03:41:35;;;;;;;1.40;0.85;;;14.50;60.90;16.30;99454.00;;;;5012031;28;20193;-76
2024/03/30 03:44:01;;;;;;;0.80;0.80;;;14.50;60.90;16.30;99457.00;;;;5012440;28;20197;-77
2024/03/30 03:46:28;;;;;;;1.35;0.70;;;14.50;60.90;16.30;99452.00;;;;5007727;28;20197;-77
2024/03/30 03:48:54;;;;;;;1.75;0.90;;;14.50;60.90;16.30;99453.00;;;;5011891;28;20200;-76
2024/03/30 03:51:23;;;;;;;0.70;0.65;;;14.50;61.00;16.30;99445.00;;;;5011965;28;20204;-76
2024/03/30 03:53:49;;;;;;;0.93;0.75;;;14.50;61.00;16.30;99455.00;;;;5012010;28;20212;-76
2024/03/30 03:56:16;;;;;;;0.77;0.70;;;14.50;61.10;16.30;99462.00;;;;5012425;28;20251;-76
2024/03/30 03:58:42;;;;;;;0.90;0.68;;;14.50;61.20;16.30;99453.00;;;;5011553;28;20199;-77
2024/03/30 04:01:11;;;;;;;0.98;0.60;;;14.50;61.20;16.30;99452.00;;;;5011874;28;20319;-76
2024/03/30 04:03:37;;;;;;;1.02;0.82;;;14.50;61.30;16.30;99443.00;;;;5011971;28;20208;-77
2024/03/30 04:06:09;;;;;;;0.85;0.82;;;14.50;61.30;16.20;99444.00;;;;5011507;28;20189;-76
2024/03/30 04:08:37;;;;;;;0.90;0.70;;;14.50;61.30;16.30;99434.00;;;;5011741;28;20288;-76
2024/03/30 04:11:06;;;;;;;2.88;0.70;;;14.50;61.30;16.30;99449.00;;;;5011305;28;20193;-76
2024/03/30 04:13:32;;;;;;;0.98;0.60;;;14.50;61.40;16.30;99445.00;;;;5011060;28;20279;-76
2024/03/30 04:16:03;;;;;;;1.65;1.20;;;14.50;61.40;16.20;99448.00;;;;5011431;28;20881;-76
2024/03/30 04:18:29;;;;;;;1.48;0.90;;;14.50;61.50;16.30;99441.00;;;;5011970;28;20208;-76
2024/03/30 04:20:58;;;;;;;0.90;0.80;;;14.40;62.10;16.20;99435.00;;;;5011845;28;20224;-76
2024/03/30 04:23:26;;;;;;;0.95;0.75;;;14.50;61.50;16.30;99432.00;;;;5016150;28;20689;-76
2024/03/30 04:26:09;;;;;;;1.20;1.02;;;14.50;61.50;16.10;99429.00;;;;5018379;28;20228;-77
2024/03/30 04:28:36;;;;;;;1.05;0.90;;;14.40;61.90;16.20;99424.00;;;;5017214;28;20268;-77
2024/03/30 04:31:06;;;;;;;1.33;1.10;;;14.40;61.50;16.20;99417.00;;;;5018508;28;20203;-75
2024/03/30 04:33:33;;;;;;;1.42;1.02;;;14.40;61.60;16.20;99418.00;;;;5017529;28;20256;-76
2024/03/30 04:36:02;;;;;;;1.20;1.10;;;14.40;61.60;16.20;99417.00;;;;5008197;28;20208;-76
2024/03/30 04:38:31;;;;;;;0.82;0.80;;;14.40;61.60;16.20;99420.00;;;;5017302;28;20208;-76
2024/03/30 04:41:02;;;;;;;1.63;1.42;;;14.40;61.60;16.20;99408.00;;;;5014969;28;20199;-76
2024/03/30 04:43:33;;;;;;;1.02;0.93;;;14.40;61.70;16.20;99399.00;;;;5018181;28;20284;-77
2024/03/30 04:46:00;;;;;;;1.95;1.27;;;14.40;61.80;16.20;99398.00;;;;5018467;28;20201;-77
2024/03/30 04:48:29;;;;;;;1.30;1.10;;;14.40;61.80;16.20;99399.00;;;;5017836;28;20276;-78
2024/03/30 04:50:56;;;;;;;1.40;1.10;;;14.40;61.80;16.20;99397.00;;;;5017591;28;20228;-77
2024/03/30 04:53:25;;;;;;;1.20;1.10;;;14.40;61.80;16.10;99393.00;;;;5019747;28;20227;-77
2024/03/30 04:55:54;;;;;;;1.67;1.33;;;14.40;61.90;16.20;99388.00;;;;5017693;28;20196;-77
2024/03/30 04:58:23;;;;;;;1.40;1.30;;;14.40;61.90;16.20;99384.00;;;;5004131;28;20215;-75
2024/03/30 05:00:52;;;;;;;1.23;0.95;;;14.40;62.00;16.20;99382.00;;;;5017586;28;20243;-75
2024/03/30 05:03:19;;;;;;;1.20;1.10;;;14.40;62.10;16.20;99378.00;;;;5017427;28;20283;-74
2024/03/30 05:05:48;;;;;;;1.52;1.27;;;14.40;62.10;16.10;99368.00;;;;5017975;28;20219;-74
2024/03/30 05:08:16;;;;;;;1.95;1.40;;;14.40;62.10;16.20;99359.00;;;;5017533;28;20677;-75
2024/03/30 05:10:43;;;;;;;1.10;1.00;;;14.40;62.10;16.10;99352.00;;;;5018227;28;20612;-75
2024/03/30 05:13:11;;;;;;;1.52;1.27;;;14.40;62.10;16.10;99355.00;;;;5008174;28;20196;-77
2024/03/30 05:15:39;;;;;;;2.35;1.52;;;14.40;62.20;16.10;99356.00;;;;5017024;28;20571;-77
2024/03/30 05:18:10;;;;;;;1.88;1.40;;;14.40;62.20;16.10;99357.00;;;;5017167;28;20234;-77
2024/03/30 05:20:50;;;;;;;1.52;1.35;;;14.30;62.20;16.10;99359.00;;;;5017514;28;20197;-74
2024/03/30 05:23:19;;;;;;;1.52;1.23;;;14.30;62.20;16.10;99357.00;;;;5017013;28;20677;-74
2024/03/30 05:25:46;;;;;;;1.27;0.98;;;14.30;62.30;16.10;99354.00;;;;5017554;28;20685;-75
2024/03/30 05:28:15;;;;;;;4.20;1.30;;;14.30;62.30;16.10;99359.00;;;;5017078;28;20220;-74
2024/03/30 05:30:42;;;;;;;0.98;0.90;;;14.30;62.40;16.10;99353.00;;;;5017041;28;20302;-74
2024/03/30 05:33:12;;;;;;;1.25;1.15;;;14.30;62.40;16.00;99340.00;;;;5014581;28;20296;-74
2024/03/30 05:35:39;;;;;;;1.20;1.08;;;14.30;62.40;16.10;99341.00;;;;5014260;28;20193;-75
2024/03/30 05:38:07;;;;;;;2.03;1.45;;;14.30;62.40;16.00;99331.00;;;;5014366;28;20255;-76
2024/03/30 05:40:35;;;;;;;1.95;1.75;;;14.30;62.50;16.00;99334.00;;;;5014293;28;20196;-76
2024/03/30 05:43:03;;;;;;;3.50;1.50;;;14.30;62.50;16.10;99331.00;;;;5014720;28;20251;-76
2024/03/30 05:45:30;;;;;;;2.13;1.60;;;14.30;62.60;16.00;99338.00;;;;5009588;28;20283;-75
2024/03/30 05:47:57;;;;;;;2.60;1.60;;;14.30;62.70;16.00;99335.00;;;;5013627;28;20199;-75
2024/03/30 05:50:26;;;;;;;3.00;1.83;;;14.30;62.70;16.00;99334.00;;;;5012578;28;20651;-75
2024/03/30 05:52:54;;;;;;;1.83;1.52;;;14.30;62.80;16.00;99342.00;;;;5005585;28;20196;-76
2024/03/30 05:55:20;;;;;;;1.80;1.70;;;14.30;62.80;16.10;99348.00;;;;5014115;28;20304;-76
2024/03/30 05:57:48;;;;;;;1.75;1.65;;;14.20;63.40;16.10;99334.00;;;;5013760;28;20224;-76
2024/03/30 06:00:15;;;;;;;1.70;1.60;;;14.20;62.80;16.00;99334.00;;;;5012497;28;20239;-75
2024/03/30 06:02:45;;;;;;;2.50;2.05;;;14.30;62.90;16.00;99330.00;;;;5013131;28;20573;-76
2024/03/30 06:05:12;;;;;;;1.58;1.48;;;14.20;62.80;16.00;99313.00;;;;5013897;28;20193;-76
2024/03/30 06:07:42;;;;;;;2.55;1.85;;;14.30;62.90;16.00;99312.00;;;;5014090;28;20193;-76
2024/03/30 06:10:09;;;;;;;2.10;1.90;;;14.30;63.00;16.00;99311.00;;;;5014268;28;20201;-76
2024/03/30 06:12:38;;;;;;;2.60;1.60;;;14.30;63.00;16.00;99316.00;;;;5011621;28;20197;-76
2024/03/30 06:15:06;;;;;;;2.30;1.50;;;14.20;62.90;16.00;99323.00;;;;5013447;28;20217;-76
2024/03/30 06:17:36;;;;;;;2.22;1.85;;;14.20;62.90;16.00;99318.00;;;;4999876;28;20646;-76
2024/03/30 06:20:05;;;;;;;1.80;1.58;;;14.30;63.10;16.10;99326.00;;;;5013675;28;20678;-75
2024/03/30 06:22:33;;;;;;;1.83;1.48;;;14.30;63.00;16.10;99326.00;;;;5001759;28;20209;-76
2024/03/30 06:25:01;;;;;;;2.10;1.90;;;14.30;63.00;16.10;99326.00;;;;5013598;28;20299;-75
2024/03/30 06:27:28;;;;;;;1.65;1.55;;;14.30;63.10;16.10;99340.00;;;;5012043;28;20220;-76
2024/03/30 06:29:54;;;;;;;1.98;1.38;;;14.30;63.10;16.10;99326.00;;;;5011825;28;20284;-75
2024/03/30 06:32:21;;;;;;;1.90;1.67;;;14.30;63.10;16.10;99334.00;;;;5012922;28;20256;-75
2024/03/30 06:34:48;;;;;;;2.00;1.70;;;14.30;63.10;16.10;99332.00;;;;5012143;28;20224;-76
2024/03/30 06:37:15;;;;;;;3.53;2.30;;;14.30;63.10;16.10;99338.00;;;;5013033;28;20279;-76
2024/03/30 06:45:12;;;;;;;2.97;1.50;;;14.30;63.00;16.10;99348.00;;;;5012210;28;20230;-76
2024/03/30 06:47:40;;;;;;;3.72;1.88;;;14.30;63.00;16.10;99346.00;;;;5010655;28;20208;-76
2024/03/30 06:50:08;;;;;;;2.58;1.80;;;14.30;63.10;16.10;99341.00;;;;5013201;28;20589;-76
2024/03/30 06:52:35;;;;;;;3.80;1.92;;;14.30;63.10;16.10;99340.00;;;;5013067;28;20191;-75
2024/03/30 06:55:02;;;;;;;2.35;2.05;;;14.30;63.20;16.10;99345.00;;;;5021273;28;20221;-75
2024/03/30 06:57:30;;;;;;;2.45;1.77;;;14.30;63.20;16.10;99342.00;;;;5021266;28;20199;-75
2024/03/30 06:59:57;;;;;;;3.47;2.08;;;14.40;63.30;16.20;99337.00;;;;5009398;28;20317;-76
2024/03/30 07:02:24;;;;;;;2.35;2.15;;;14.40;63.30;16.20;99338.00;;;;5020484;28;20197;-75
2024/03/30 07:04:50;;;;;;;2.42;2.22;;;14.40;63.30;16.20;99338.00;;;;5022085;28;20205;-76
2024/03/30 07:07:17;;;;;;;3.50;2.13;;;14.40;63.30;16.20;99338.00;;;;5015993;28;20188;-76
2024/03/30 07:09:43;;;;;;;3.20;2.38;;;14.40;63.40;16.20;99334.00;;;;5021608;28;20279;-76
2024/03/30 07:12:10;;;;;;;2.22;2.03;;;14.40;63.50;16.20;99329.00;;;;5023146;28;20619;-76
2024/03/30 07:14:38;;;;;;;2.60;2.40;;;14.40;63.50;16.20;99324.00;;;;5024146;28;20227;-76
2024/03/30 07:17:05;;;;;;;2.10;1.90;;;14.40;63.60;16.30;99330.00;;;;5024816;28;20192;-75
2024/03/30 07:19:31;;;;;;;2.67;2.30;;;14.50;63.60;16.30;99334.00;;;;5016722;28;20193;-76
2024/03/30 07:21:58;;;;;;;4.85;2.58;;;14.50;63.70;16.30;99329.00;;;;5016288;28;20605;-76
2024/03/30 07:24:25;;;;;;;2.67;2.15;;;14.50;63.60;16.30;99324.00;;;;5010561;28;20224;-76
2024/03/30 07:26:53;;;;;;;2.35;2.15;;;14.50;63.70;16.40;99325.00;;;;5020031;28;20205;-75
2024/03/30 07:29:19;;;;;;;2.60;2.40;;;14.50;63.60;16.40;99317.00;;;;5015140;28;20243;-76
2024/03/30 07:31:48;;;;;;;2.85;2.60;;;14.60;63.70;16.40;99313.00;;;;5011373;28;20575;-76
2024/03/30 07:34:14;;;;;;;4.00;2.50;;;14.60;63.70;16.40;99310.00;;;;5016772;28;20232;-76
2024/03/30 07:36:41;;;;;;;1.75;1.65;;;14.60;63.60;16.40;99314.00;;;;5018169;28;20197;-76
2024/03/30 07:39:07;;;;;;;2.25;1.92;;;14.60;63.70;16.40;99309.00;;;;5016748;28;20280;-76
2024/03/30 07:41:34;;;;;;;2.60;2.38;;;14.60;63.60;16.40;99299.00;;;;5021054;28;20212;-76
2024/03/30 07:44:00;;;;;;;3.25;2.47;;;14.60;63.60;16.50;99291.00;;;;5015996;28;20228;-76
2024/03/30 07:46:27;;;;;;;2.55;2.03;;;14.70;63.60;16.50;99291.00;;;;5018459;28;20557;-76
2024/03/30 07:48:55;;;;;;;3.85;2.25;;;14.70;63.60;16.50;99289.00;;;;5019999;28;20199;-76
2024/03/30 07:51:23;;;;;;;2.80;2.53;;;14.70;63.70;16.50;99292.00;;;;5017025;28;20662;-76
2024/03/30 07:53:49;;;;;;;3.45;2.28;;;14.70;63.70;16.50;99290.00;;;;5015360;28;20198;-76
2024/03/30 07:56:16;;;;;;;4.40;2.10;;;14.70;63.70;16.60;99293.00;;;;5022658;28;20197;-76
2024/03/30 07:58:42;;;;;;;2.92;2.30;;;14.80;63.80;16.60;99295.00;;;;5011157;28;20284;-76
2024/03/30 08:01:09;;;;;;;2.45;2.25;;;14.80;63.70;16.60;99297.00;;;;5010087;28;20309;-76
2024/03/30 08:03:35;;;;;;;2.20;2.00;;;14.80;63.60;16.60;99287.00;;;;5012224;28;20244;-76
2024/03/30 08:06:06;;;;;;;2.30;2.00;;;14.80;63.70;16.70;99288.00;;;;5011390;28;20200;-76
2024/03/30 08:08:34;;;;;;;2.85;2.22;;;14.80;63.70;16.70;99284.00;;;;5008831;28;20223;-77
2024/03/30 08:11:01;;;;;;;3.00;2.15;;;14.90;63.70;16.70;99288.00;;;;5011502;28;20193;-76
2024/03/30 08:13:27;;;;;;;3.00;2.50;;;14.90;63.70;16.70;99290.00;;;;5011170;28;20267;-75
2024/03/30 08:15:54;;;;;;;3.40;2.67;;;14.90;63.70;16.70;99307.00;;;;5011815;28;20741;-75
2024/03/30 08:18:21;;;;;;;3.88;2.80;;;14.90;63.70;16.80;99292.00;;;;5012320;28;20287;-75
2024/03/30 08:20:48;;;;;;;3.22;2.65;;;14.90;63.80;16.80;99284.00;;;;5011785;28;20248;-75
2024/03/30 08:23:15;;;;;;;2.95;2.17;;;14.90;63.70;16.80;99277.00;;;;5011398;28;20202;-75
2024/03/30 08:25:42;;;;;;;2.92;2.42;;;15.00;63.80;16.80;99261.00;;;;5011049;28;20240;-76
2024/03/30 08:28:10;;;;;;;3.30;2.45;;;15.00;63.90;16.90;99260.00;;;;5011292;28;20195;-76
2024/03/30 08:30:37;;;;;;;3.30;3.00;;;15.00;63.90;16.90;99272.00;;;;4992368;28;20216;-77
2024/03/30 08:33:04;;;;;;;3.40;2.75;;;15.10;63.90;17.00;99262.00;;;;5006385;28;20200;-76
2024/03/30 08:35:31;;;;;;;4.88;2.85;;;15.10;64.00;17.10;99254.00;;;;5011515;28;20252;-77
2024/03/30 08:37:57;;;;;;;4.32;3.20;;;15.20;64.10;17.10;99259.00;;;;5011887;28;20208;-77
2024/03/30 08:40:26;;;;;;;3.60;3.13;;;15.20;64.10;17.20;99259.00;;;;5010964;28;20280;-77
2024/03/30 08:42:52;;;;;;;4.15;3.25;;;15.30;64.20;17.20;99254.00;;;;5010872;28;20199;-77
2024/03/30 08:45:19;;;;;;;3.40;3.10;;;15.30;64.20;17.30;99264.00;;;;5011618;28;20205;-77
2024/03/30 08:47:46;;;;;;;3.95;3.10;;;15.40;64.10;17.30;99264.00;;;;5011592;28;20193;-77
2024/03/30 08:50:13;;;;;;;3.72;2.97;;;15.40;64.00;17.30;99266.00;;;;5011508;28;20201;-77
2024/03/30 08:52:39;;;;;;;4.57;3.80;;;15.50;64.00;17.40;99270.00;;;;5014487;28;20203;-77
2024/03/30 08:55:06;;;;;;;3.55;3.10;;;15.50;63.90;17.40;99259.00;;;;5017016;28;20888;-77
2024/03/30 08:57:34;;;;;;;3.28;2.95;;;15.50;63.90;17.40;99255.00;;;;5011200;28;20655;-78
2024/03/30 09:00:01;;;;;;;4.32;3.92;;;15.60;64.00;17.50;99253.00;;;;5011081;28;20248;-77
2024/03/30 09:02:31;;;;;;;3.88;3.53;;;15.60;64.00;17.50;99244.00;;;;5010608;28;20196;-78
2024/03/30 09:04:58;;;;;;;4.28;3.85;;;15.60;64.00;17.60;99246.00;;;;5010955;28;20227;-76
2024/03/30 09:07:24;;;;;;;4.15;3.75;;;15.70;64.00;17.60;99243.00;;;;5010964;28;20722;-77
2024/03/30 09:09:51;;;;;;;4.60;4.10;;;15.70;63.90;17.60;99229.00;;;;5014484;28;20659;-77
2024/03/30 09:12:17;;;;;;;8.00;4.57;;;15.80;63.70;17.70;99239.00;;;;5010987;28;20279;-76
2024/03/30 09:14:46;;;;;;;4.68;4.20;;;15.80;63.70;17.60;99237.00;;;;5011516;28;20220;-77
2024/03/30 09:17:12;;;;;;;5.30;4.63;;;15.80;63.60;17.70;99237.00;;;;5014822;28;20585;-77
2024/03/30 09:19:39;;;;;;;4.22;3.78;;;15.90;63.50;17.70;99234.00;;;;5014996;28;20201;-77
2024/03/30 09:22:05;;;;;;;5.60;4.32;;;15.90;63.50;17.70;99234.00;;;;5014923;28;20193;-78
2024/03/30 09:24:32;;;;;;;4.70;4.25;;;15.90;63.60;17.80;99226.00;;;;5018441;28;20252;-78
2024/03/30 09:26:59;;;;;;;5.20;4.70;;;15.90;63.60;17.80;99214.00;;;;5021292;28;20197;-78
2024/03/30 09:29:26;;;;;;;4.80;4.32;;;16.00;63.80;17.90;99231.00;;;;5014292;28;20721;-78
2024/03/30 09:31:54;;;;;;;5.22;4.70;;;16.00;63.80;18.00;99235.00;;;;5007529;28;20195;-77
2024/03/30 09:34:21;;;;;;;5.47;4.97;;;16.10;63.90;18.10;99239.00;;;;5006592;28;20213;-77
2024/03/30 09:36:47;;;;;;;5.65;5.05;;;16.20;64.00;18.20;99231.00;;;;5012782;28;20224;-78
2024/03/30 09:39:14;;;;;;;5.50;5.00;;;16.20;64.00;18.20;99235.00;;;;5002416;28;20715;-76
2024/03/30 09:41:49;;;;;;;5.40;4.95;;;16.30;64.10;18.30;99239.00;;;;5011952;28;20215;-77
2024/03/30 09:44:16;;;;;;;6.82;5.45;;;16.40;64.00;18.40;99248.00;;;;5012653;28;20315;-77
2024/03/30 09:46:44;;;;;;;6.90;5.60;;;16.50;64.00;18.50;99241.00;;;;5012803;28;20680;-77
2024/03/30 09:49:16;;;;;;;5.75;5.03;;;16.50;63.90;18.50;99235.00;;;;5012619;28;20365;-76
2024/03/30 09:51:43;;;;;;;6.53;5.93;;;16.60;63.70;18.50;99240.00;;;;5013555;28;20197;-77
2024/03/30 09:54:13;;;;;;;6.47;5.57;;;16.70;63.60;18.60;99235.00;;;;5014761;28;20730;-76
2024/03/30 09:56:43;;;;;;;5.97;5.40;;;16.70;63.30;18.60;99224.00;;;;5012212;28;20207;-76
2024/03/30 09:59:12;;;;;;;6.55;5.95;;;16.70;63.10;18.60;99233.00;;;;5013171;28;20201;-78
2024/03/30 10:01:38;;;;;;;8.73;5.95;;;16.70;62.90;18.60;99227.00;;;;4975011;28;20209;-75
2024/03/30 10:04:05;;;;;;;7.82;6.32;;;16.70;62.80;18.60;99229.00;;;;4975213;28;20198;-74
2024/03/30 10:06:42;;;;;;;6.90;6.22;;;16.70;62.80;18.60;99219.00;;;;4973731;28;20209;-76
2024/03/30 10:09:14;;;;;;;7.57;6.82;;;16.80;62.80;18.70;99219.00;;;;4956080;28;20575;-76
2024/03/30 10:11:43;;;;;;;7.47;6.60;;;16.80;62.80;18.70;99213.00;;;;4963149;28;20201;-76
2024/03/30 10:14:23;;;;;;;6.90;6.20;;;16.80;62.70;18.60;99214.00;;;;4973282;28;20281;-77
2024/03/30 10:16:50;;;;;;;6.65;6.03;;;16.80;62.70;18.70;99211.00;;;;4974913;28;20194;-77
2024/03/30 10:19:20;;;;;;;8.20;7.40;;;16.90;62.80;18.70;99204.00;;;;4993278;28;20210;-77
2024/03/30 10:21:49;;;;;;;8.00;7.20;;;16.90;62.70;18.70;99194.00;;;;4973518;28;20329;-76
2024/03/30 10:24:17;;;;;;;6.90;6.25;;;16.90;62.50;18.70;99200.00;;;;4973444;28;20305;-77
2024/03/30 10:26:44;;;;;;;7.15;6.53;;;16.90;62.40;18.80;99203.00;;;;4974222;28;20208;-77
2024/03/30 10:29:11;;;;;;;8.50;6.60;;;16.90;62.60;18.80;99211.00;;;;4961222;28;20210;-77
2024/03/30 10:31:38;;;;;;;7.82;6.97;;;16.90;62.50;18.90;99205.00;;;;4974012;28;20285;-77
2024/03/30 10:34:05;;;;;;;7.47;6.75;;;17.00;62.50;18.90;99220.00;;;;4989006;28;20194;-77
2024/03/30 10:36:31;;;;;;;12.27;10.50;;;17.00;62.50;18.90;99213.00;;;;4993265;28;20433;-76
2024/03/30 10:39:01;;;;;;;8.25;7.45;;;17.00;64.00;19.10;99210.00;;;;4978993;28;20194;-76
2024/03/30 10:41:27;;;;;;;8.23;7.43;;;17.00;63.30;19.10;99222.00;;;;4966071;28;20728;-78
2024/03/30 10:43:54;;;;;;;8.55;7.25;;;17.10;63.10;19.10;99220.00;;;;4986320;28;20301;-76
2024/03/30 10:46:23;;;;;;;7.85;7.05;;;17.20;62.90;19.10;99214.00;;;;4972871;28;20208;-76
2024/03/30 10:48:51;;;;;;;7.63;6.78;;;17.20;62.60;19.20;99212.00;;;;4980100;28;20206;-77
2024/03/30 10:51:18;;;;;;;8.00;7.20;;;17.20;62.50;19.10;99219.00;;;;4980528;28;20201;-76
2024/03/30 10:53:45;;;;;;;7.95;7.15;;;17.30;62.40;19.20;99208.00;;;;4973992;28;20225;-77
2024/03/30 10:56:13;;;;;;;8.70;7.80;;;17.30;62.20;19.20;99218.00;;;;4973729;28;20824;-77
2024/03/30 10:58:41;;;;;;;7.88;7.15;;;17.30;62.10;19.20;99217.00;;;;4972353;28;20205;-77
2024/03/30 11:01:09;;;;;;;8.80;7.90;;;17.30;62.10;19.20;99220.00;;;;5004724;28;20598;-78